sensor_id;sensor_type;location;lat;lon;timestamp;temperature;humidity
37844;DHT22;63793;57.632;18.292;2023-07-13T00:00:47;16.30;99.90
37844;DHT22;63793;57.632;18.292;2023-07-13T00:03:14;16.40;99.90
37844;DHT22;63793;57.632;18.292;2023-07-13T00:05:42;16.50;99.90
37844;DHT22;63793;57.632;18.292;2023-07-13T00:08:09;16.50;99.90
37844;DHT22;63793;57.632;18.292;2023-07-13T00:10:41;16.60;99.90
37844;DHT22;63793;57.632;18.292;2023-07-13T00:13:08;16.60;99.90
37844;DHT22;63793;57.632;18.292;2023-07-13T00:15:36;16.60;99.90
37844;DHT22;63793;57.632;18.292;2023-07-13T00:18:03;16.60;99.90
37844;DHT22;63793;57.632;18.292;2023-07-13T00:20:30;16.60;99.90
37844;DHT22;63793;57.632;18.292;2023-07-13T00:22:57;16.60;99.90
37844;DHT22;63793;57.632;18.292;2023-07-13T00:25:24;16.60;99.90
37844;DHT22;63793;57.632;18.292;2023-07-13T00:27:54;16.60;99.90
37844;DHT22;63793;57.632;18.292;2023-07-13T00:30:22;16.60;99.90
37844;DHT22;63793;57.632;18.292;2023-07-13T00:32:50;16.60;99.90
37844;DHT22;63793;57.632;18.292;2023-07-13T00:35:31;16.50;99.90
37844;DHT22;63793;57.632;18.292;2023-07-13T00:37:58;16.60;99.90
37844;DHT22;63793;57.632;18.292;2023-07-13T00:40:25;16.60;99.90
37844;DHT22;63793;57.632;18.292;2023-07-13T00:42:52;16.60;99.90
37844;DHT22;63793;57.632;18.292;2023-07-13T00:47:46;16.60;99.90
37844;DHT22;63793;57.632;18.292;2023-07-13T00:50:16;16.60;99.90
37844;DHT22;63793;57.632;18.292;2023-07-13T00:52:46;16.60;99.90
37844;DHT22;63793;57.632;18.292;2023-07-13T00:55:15;16.60;99.90
37844;DHT22;63793;57.632;18.292;2023-07-13T00:57:44;16.60;99.90
37844;DHT22;63793;57.632;18.292;2023-07-13T01:00:12;16.60;99.90
37844;DHT22;63793;57.632;18.292;2023-07-13T01:02:42;16.60;99.90
37844;DHT22;63793;57.632;18.292;2023-07-13T01:07:38;16.60;99.90
37844;DHT22;63793;57.632;18.292;2023-07-13T01:10:07;16.60;99.90
37844;DHT22;63793;57.632;18.292;2023-07-13T01:12:34;16.50;99.90
37844;DHT22;63793;57.632;18.292;2023-07-13T01:15:01;16.60;99.90
37844;DHT22;63793;57.632;18.292;2023-07-13T01:17:29;16.60;99.90
37844;DHT22;63793;57.632;18.292;2023-07-13T01:19:56;16.50;99.90
37844;DHT22;63793;57.632;18.292;2023-07-13T01:22:23;16.50;99.90
37844;DHT22;63793;57.632;18.292;2023-07-13T01:24:54;16.50;99.90
37844;DHT22;63793;57.632;18.292;2023-07-13T01:27:23;16.50;99.90
37844;DHT22;63793;57.632;18.292;2023-07-13T01:29:52;16.50;99.90
37844;DHT22;63793;57.632;18.292;2023-07-13T01:32:22;16.50;99.90
37844;DHT22;63793;57.632;18.292;2023-07-13T01:34:54;16.40;99.90
37844;DHT22;63793;57.632;18.292;2023-07-13T01:37:23;16.40;99.90
37844;DHT22;63793;57.632;18.292;2023-07-13T01:39:51;16.40;99.90
37844;DHT22;63793;57.632;18.292;2023-07-13T01:42:18;16.40;99.90
37844;DHT22;63793;57.632;18.292;2023-07-13T01:44:47;16.40;99.90
37844;DHT22;63793;57.632;18.292;2023-07-13T01:47:14;16.40;99.90
37844;DHT22;63793;57.632;18.292;2023-07-13T01:49:41;16.30;99.90
37844;DHT22;63793;57.632;18.292;2023-07-13T01:52:08;16.30;99.90
37844;DHT22;63793;57.632;18.292;2023-07-13T01:54:35;16.30;99.90
37844;DHT22;63793;57.632;18.292;2023-07-13T01:57:02;16.30;99.90
37844;DHT22;63793;57.632;18.292;2023-07-13T01:59:30;16.30;99.90
37844;DHT22;63793;57.632;18.292;2023-07-13T02:01:57;16.30;99.90
37844;DHT22;63793;57.632;18.292;2023-07-13T02:04:24;16.30;99.90
37844;DHT22;63793;57.632;18.292;2023-07-13T02:06:51;16.30;99.90
37844;DHT22;63793;57.632;18.292;2023-07-13T02:09:18;16.30;99.90
37844;DHT22;63793;57.632;18.292;2023-07-13T02:11:45;16.30;99.90
37844;DHT22;63793;57.632;18.292;2023-07-13T02:14:12;16.30;99.90
37844;DHT22;63793;57.632;18.292;2023-07-13T02:16:39;16.30;99.90
37844;DHT22;63793;57.632;18.292;2023-07-13T02:19:06;16.30;99.90
37844;DHT22;63793;57.632;18.292;2023-07-13T02:21:33;16.30;99.90
37844;DHT22;63793;57.632;18.292;2023-07-13T02:24:00;16.30;99.90
37844;DHT22;63793;57.632;18.292;2023-07-13T02:26:27;16.30;99.90
37844;DHT22;63793;57.632;18.292;2023-07-13T02:28:54;16.20;99.90
37844;DHT22;63793;57.632;18.292;2023-07-13T02:31:21;16.30;99.90
37844;DHT22;63793;57.632;18.292;2023-07-13T02:33:48;16.30;99.90
37844;DHT22;63793;57.632;18.292;2023-07-13T02:36:16;16.30;99.90
37844;DHT22;63793;57.632;18.292;2023-07-13T02:38:45;16.20;99.90
37844;DHT22;63793;57.632;18.292;2023-07-13T02:41:12;16.20;99.90
37844;DHT22;63793;57.632;18.292;2023-07-13T02:43:39;16.30;99.90
37844;DHT22;63793;57.632;18.292;2023-07-13T02:46:08;16.20;99.90
37844;DHT22;63793;57.632;18.292;2023-07-13T02:48:37;16.20;99.90
37844;DHT22;63793;57.632;18.292;2023-07-13T02:51:05;16.20;99.90
37844;DHT22;63793;57.632;18.292;2023-07-13T02:53:32;16.20;99.90
37844;DHT22;63793;57.632;18.292;2023-07-13T02:55:59;16.20;99.90
37844;DHT22;63793;57.632;18.292;2023-07-13T02:58:26;16.20;99.90
37844;DHT22;63793;57.632;18.292;2023-07-13T03:00:53;16.20;99.90
37844;DHT22;63793;57.632;18.292;2023-07-13T03:03:20;16.20;99.90
37844;DHT22;63793;57.632;18.292;2023-07-13T03:05:47;16.20;99.90
37844;DHT22;63793;57.632;18.292;2023-07-13T03:08:22;16.20;99.90
37844;DHT22;63793;57.632;18.292;2023-07-13T03:11:02;16.30;99.90
37844;DHT22;63793;57.632;18.292;2023-07-13T03:13:32;16.30;99.90
37844;DHT22;63793;57.632;18.292;2023-07-13T03:16:00;16.30;99.90
37844;DHT22;63793;57.632;18.292;2023-07-13T03:18:28;16.30;99.90
37844;DHT22;63793;57.632;18.292;2023-07-13T03:20:59;16.30;99.90
37844;DHT22;63793;57.632;18.292;2023-07-13T03:23:26;16.30;99.90
37844;DHT22;63793;57.632;18.292;2023-07-13T03:26:12;16.30;99.90
37844;DHT22;63793;57.632;18.292;2023-07-13T03:28:41;16.40;99.90
37844;DHT22;63793;57.632;18.292;2023-07-13T03:31:20;16.40;99.90
37844;DHT22;63793;57.632;18.292;2023-07-13T03:33:48;16.40;99.90
37844;DHT22;63793;57.632;18.292;2023-07-13T03:36:21;16.40;99.90
37844;DHT22;63793;57.632;18.292;2023-07-13T03:38:53;16.40;99.90
37844;DHT22;63793;57.632;18.292;2023-07-13T03:41:24;16.50;99.90
37844;DHT22;63793;57.632;18.292;2023-07-13T03:43:53;16.50;99.90
37844;DHT22;63793;57.632;18.292;2023-07-13T03:46:23;16.40;99.90
37844;DHT22;63793;57.632;18.292;2023-07-13T03:48:50;16.40;99.90
37844;DHT22;63793;57.632;18.292;2023-07-13T03:51:18;16.50;99.90
37844;DHT22;63793;57.632;18.292;2023-07-13T03:53:46;16.40;99.90
37844;DHT22;63793;57.632;18.292;2023-07-13T03:56:17;16.40;99.90
37844;DHT22;63793;57.632;18.292;2023-07-13T03:58:47;16.50;99.90
37844;DHT22;63793;57.632;18.292;2023-07-13T04:01:19;16.40;99.90
37844;DHT22;63793;57.632;18.292;2023-07-13T04:03:47;16.50;99.90
37844;DHT22;63793;57.632;18.292;2023-07-13T04:06:17;16.50;99.90
37844;DHT22;63793;57.632;18.292;2023-07-13T04:08:59;16.40;99.90
37844;DHT22;63793;57.632;18.292;2023-07-13T04:11:28;16.50;99.90
37844;DHT22;63793;57.632;18.292;2023-07-13T04:13:55;16.50;99.90
37844;DHT22;63793;57.632;18.292;2023-07-13T04:16:23;16.50;99.90
37844;DHT22;63793;57.632;18.292;2023-07-13T04:18:51;16.60;99.90
37844;DHT22;63793;57.632;18.292;2023-07-13T04:21:21;16.60;99.90
37844;DHT22;63793;57.632;18.292;2023-07-13T04:23:48;16.60;99.90
37844;DHT22;63793;57.632;18.292;2023-07-13T04:26:15;16.50;99.90
37844;DHT22;63793;57.632;18.292;2023-07-13T04:28:42;16.50;99.90
37844;DHT22;63793;57.632;18.292;2023-07-13T04:31:09;16.50;99.90
37844;DHT22;63793;57.632;18.292;2023-07-13T04:33:37;16.60;99.90
37844;DHT22;63793;57.632;18.292;2023-07-13T04:36:04;16.60;99.90
37844;DHT22;63793;57.632;18.292;2023-07-13T04:38:32;16.60;99.90
37844;DHT22;63793;57.632;18.292;2023-07-13T04:41:01;16.60;99.90
37844;DHT22;63793;57.632;18.292;2023-07-13T04:43:29;16.60;99.90
37844;DHT22;63793;57.632;18.292;2023-07-13T04:45:56;16.60;99.90
37844;DHT22;63793;57.632;18.292;2023-07-13T04:48:24;16.60;99.90
37844;DHT22;63793;57.632;18.292;2023-07-13T04:50:56;16.60;99.90
37844;DHT22;63793;57.632;18.292;2023-07-13T04:53:23;16.70;99.90
37844;DHT22;63793;57.632;18.292;2023-07-13T04:55:50;16.70;99.90
37844;DHT22;63793;57.632;18.292;2023-07-13T04:58:17;16.70;99.90
37844;DHT22;63793;57.632;18.292;2023-07-13T05:00:44;16.80;99.90
37844;DHT22;63793;57.632;18.292;2023-07-13T05:03:11;16.80;99.90
37844;DHT22;63793;57.632;18.292;2023-07-13T05:05:38;16.70;99.90
37844;DHT22;63793;57.632;18.292;2023-07-13T05:08:05;16.80;99.90
37844;DHT22;63793;57.632;18.292;2023-07-13T05:10:35;16.80;99.90
37844;DHT22;63793;57.632;18.292;2023-07-13T05:13:02;16.80;99.90
37844;DHT22;63793;57.632;18.292;2023-07-13T05:15:29;16.80;99.90
37844;DHT22;63793;57.632;18.292;2023-07-13T05:17:56;16.80;99.90
37844;DHT22;63793;57.632;18.292;2023-07-13T05:20:23;16.90;99.90
37844;DHT22;63793;57.632;18.292;2023-07-13T05:22:50;16.90;99.90
37844;DHT22;63793;57.632;18.292;2023-07-13T05:25:17;16.90;99.90
37844;DHT22;63793;57.632;18.292;2023-07-13T05:27:44;16.90;99.90
37844;DHT22;63793;57.632;18.292;2023-07-13T05:30:13;16.90;99.90
37844;DHT22;63793;57.632;18.292;2023-07-13T05:32:40;17.00;99.90
37844;DHT22;63793;57.632;18.292;2023-07-13T05:35:08;17.00;99.90
37844;DHT22;63793;57.632;18.292;2023-07-13T05:37:36;17.00;99.90
37844;DHT22;63793;57.632;18.292;2023-07-13T05:40:03;17.00;99.90
37844;DHT22;63793;57.632;18.292;2023-07-13T05:42:31;17.00;99.90
37844;DHT22;63793;57.632;18.292;2023-07-13T05:44:58;17.10;99.90
37844;DHT22;63793;57.632;18.292;2023-07-13T05:47:25;17.10;99.90
37844;DHT22;63793;57.632;18.292;2023-07-13T05:49:51;17.10;99.90
37844;DHT22;63793;57.632;18.292;2023-07-13T05:52:18;17.10;99.90
37844;DHT22;63793;57.632;18.292;2023-07-13T05:54:45;17.10;99.90
37844;DHT22;63793;57.632;18.292;2023-07-13T05:57:12;17.10;99.90
37844;DHT22;63793;57.632;18.292;2023-07-13T05:59:39;17.20;99.90
37844;DHT22;63793;57.632;18.292;2023-07-13T06:02:09;17.20;99.90
37844;DHT22;63793;57.632;18.292;2023-07-13T06:04:36;17.20;99.90
37844;DHT22;63793;57.632;18.292;2023-07-13T06:07:03;17.20;99.90
37844;DHT22;63793;57.632;18.292;2023-07-13T06:09:30;17.20;99.90
37844;DHT22;63793;57.632;18.292;2023-07-13T06:11:58;17.20;99.90
37844;DHT22;63793;57.632;18.292;2023-07-13T06:14:25;17.20;99.90
37844;DHT22;63793;57.632;18.292;2023-07-13T06:16:52;17.20;99.90
37844;DHT22;63793;57.632;18.292;2023-07-13T06:19:19;17.20;99.90
37844;DHT22;63793;57.632;18.292;2023-07-13T06:21:46;17.20;99.90
37844;DHT22;63793;57.632;18.292;2023-07-13T06:24:12;17.20;99.90
37844;DHT22;63793;57.632;18.292;2023-07-13T06:26:39;17.20;99.90
37844;DHT22;63793;57.632;18.292;2023-07-13T06:29:06;17.20;99.90
37844;DHT22;63793;57.632;18.292;2023-07-13T06:31:33;17.30;99.90
37844;DHT22;63793;57.632;18.292;2023-07-13T06:34:00;17.40;99.90
37844;DHT22;63793;57.632;18.292;2023-07-13T06:36:27;17.40;99.90
37844;DHT22;63793;57.632;18.292;2023-07-13T06:38:54;17.40;99.90
37844;DHT22;63793;57.632;18.292;2023-07-13T06:41:21;17.50;99.90
37844;DHT22;63793;57.632;18.292;2023-07-13T06:43:49;17.50;99.90
37844;DHT22;63793;57.632;18.292;2023-07-13T06:46:16;17.50;99.90
37844;DHT22;63793;57.632;18.292;2023-07-13T06:48:43;17.50;99.90
37844;DHT22;63793;57.632;18.292;2023-07-13T06:51:10;17.50;99.90
37844;DHT22;63793;57.632;18.292;2023-07-13T06:53:37;17.40;99.90
37844;DHT22;63793;57.632;18.292;2023-07-13T06:56:04;17.50;99.90
37844;DHT22;63793;57.632;18.292;2023-07-13T06:58:33;17.50;99.90
37844;DHT22;63793;57.632;18.292;2023-07-13T07:01:00;17.50;99.90
37844;DHT22;63793;57.632;18.292;2023-07-13T07:03:27;17.60;99.90
37844;DHT22;63793;57.632;18.292;2023-07-13T07:06:00;17.60;99.90
37844;DHT22;63793;57.632;18.292;2023-07-13T07:08:27;17.70;99.90
37844;DHT22;63793;57.632;18.292;2023-07-13T07:10:54;17.70;99.90
37844;DHT22;63793;57.632;18.292;2023-07-13T07:13:21;17.70;99.90
37844;DHT22;63793;57.632;18.292;2023-07-13T07:15:50;17.70;99.90
37844;DHT22;63793;57.632;18.292;2023-07-13T07:18:17;17.70;99.90
37844;DHT22;63793;57.632;18.292;2023-07-13T07:20:44;17.70;99.90
37844;DHT22;63793;57.632;18.292;2023-07-13T07:23:11;17.70;99.90
37844;DHT22;63793;57.632;18.292;2023-07-13T07:25:38;17.70;99.90
37844;DHT22;63793;57.632;18.292;2023-07-13T07:28:08;17.70;99.90
37844;DHT22;63793;57.632;18.292;2023-07-13T07:30:42;17.70;99.90
37844;DHT22;63793;57.632;18.292;2023-07-13T07:33:13;17.70;99.90
37844;DHT22;63793;57.632;18.292;2023-07-13T07:35:40;17.90;99.90
37844;DHT22;63793;57.632;18.292;2023-07-13T07:38:27;18.00;99.90
37844;DHT22;63793;57.632;18.292;2023-07-13T07:40:54;18.10;99.90
37844;DHT22;63793;57.632;18.292;2023-07-13T07:43:24;18.10;99.90
37844;DHT22;63793;57.632;18.292;2023-07-13T07:45:51;18.00;99.90
37844;DHT22;63793;57.632;18.292;2023-07-13T07:48:18;18.00;99.90
37844;DHT22;63793;57.632;18.292;2023-07-13T07:50:44;18.10;99.90
37844;DHT22;63793;57.632;18.292;2023-07-13T07:53:11;18.10;99.90
37844;DHT22;63793;57.632;18.292;2023-07-13T07:55:39;18.10;99.90
37844;DHT22;63793;57.632;18.292;2023-07-13T07:58:26;18.20;99.90
37844;DHT22;63793;57.632;18.292;2023-07-13T08:01:02;18.20;99.90
37844;DHT22;63793;57.632;18.292;2023-07-13T08:03:33;18.30;99.90
37844;DHT22;63793;57.632;18.292;2023-07-13T08:06:02;18.30;99.90
37844;DHT22;63793;57.632;18.292;2023-07-13T08:08:33;18.30;99.90
37844;DHT22;63793;57.632;18.292;2023-07-13T08:11:05;18.20;99.90
37844;DHT22;63793;57.632;18.292;2023-07-13T08:13:53;18.20;99.90
37844;DHT22;63793;57.632;18.292;2023-07-13T08:16:22;18.20;99.90
37844;DHT22;63793;57.632;18.292;2023-07-13T08:18:49;18.30;99.90
37844;DHT22;63793;57.632;18.292;2023-07-13T08:21:16;18.40;99.90
37844;DHT22;63793;57.632;18.292;2023-07-13T08:23:43;18.30;99.90
37844;DHT22;63793;57.632;18.292;2023-07-13T08:26:10;18.40;99.90
37844;DHT22;63793;57.632;18.292;2023-07-13T08:28:37;18.50;99.90
37844;DHT22;63793;57.632;18.292;2023-07-13T08:31:06;18.50;99.90
37844;DHT22;63793;57.632;18.292;2023-07-13T08:33:35;18.50;99.90
37844;DHT22;63793;57.632;18.292;2023-07-13T08:36:03;18.50;99.90
37844;DHT22;63793;57.632;18.292;2023-07-13T08:38:30;18.40;99.90
37844;DHT22;63793;57.632;18.292;2023-07-13T08:40:56;18.40;99.90
37844;DHT22;63793;57.632;18.292;2023-07-13T08:43:30;18.50;99.90
37844;DHT22;63793;57.632;18.292;2023-07-13T08:48:37;18.70;99.90
37844;DHT22;63793;57.632;18.292;2023-07-13T08:56:46;18.80;99.90
37844;DHT22;63793;57.632;18.292;2023-07-13T08:59:17;18.90;99.90
37844;DHT22;63793;57.632;18.292;2023-07-13T09:04:50;18.80;99.90
37844;DHT22;63793;57.632;18.292;2023-07-13T09:07:39;18.80;99.90
37844;DHT22;63793;57.632;18.292;2023-07-13T09:10:21;18.90;99.90
37844;DHT22;63793;57.632;18.292;2023-07-13T09:16:09;18.90;99.90
37844;DHT22;63793;57.632;18.292;2023-07-13T09:18:47;19.00;99.90
37844;DHT22;63793;57.632;18.292;2023-07-13T09:23:45;19.00;99.90
37844;DHT22;63793;57.632;18.292;2023-07-13T09:28:45;19.40;99.90
37844;DHT22;63793;57.632;18.292;2023-07-13T09:31:20;19.40;99.90
37844;DHT22;63793;57.632;18.292;2023-07-13T09:33:50;19.30;99.90
37844;DHT22;63793;57.632;18.292;2023-07-13T09:36:32;19.30;99.90
37844;DHT22;63793;57.632;18.292;2023-07-13T09:44:44;19.20;99.90
37844;DHT22;63793;57.632;18.292;2023-07-13T09:47:18;19.50;99.90
37844;DHT22;63793;57.632;18.292;2023-07-13T09:49:45;19.60;99.90
37844;DHT22;63793;57.632;18.292;2023-07-13T09:52:15;19.70;99.90
37844;DHT22;63793;57.632;18.292;2023-07-13T09:54:49;19.80;99.90
37844;DHT22;63793;57.632;18.292;2023-07-13T09:57:18;20.00;99.90
37844;DHT22;63793;57.632;18.292;2023-07-13T09:59:51;20.20;99.90
37844;DHT22;63793;57.632;18.292;2023-07-13T10:05:07;20.20;99.90
37844;DHT22;63793;57.632;18.292;2023-07-13T10:07:44;20.10;99.90
37844;DHT22;63793;57.632;18.292;2023-07-13T10:10:20;20.20;99.90
37844;DHT22;63793;57.632;18.292;2023-07-13T10:12:47;20.30;99.90
37844;DHT22;63793;57.632;18.292;2023-07-13T10:15:21;20.30;99.90
37844;DHT22;63793;57.632;18.292;2023-07-13T10:17:55;20.50;99.90
37844;DHT22;63793;57.632;18.292;2023-07-13T10:20:23;20.30;99.90
37844;DHT22;63793;57.632;18.292;2023-07-13T10:23:15;20.30;99.90
37844;DHT22;63793;57.632;18.292;2023-07-13T10:25:46;20.40;99.90
37844;DHT22;63793;57.632;18.292;2023-07-13T10:28:30;20.40;99.90
37844;DHT22;63793;57.632;18.292;2023-07-13T10:30:59;20.50;99.90
37844;DHT22;63793;57.632;18.292;2023-07-13T10:33:27;20.50;99.90
37844;DHT22;63793;57.632;18.292;2023-07-13T10:36:28;20.50;99.90
37844;DHT22;63793;57.632;18.292;2023-07-13T10:38:57;20.40;99.90
37844;DHT22;63793;57.632;18.292;2023-07-13T10:41:28;20.20;99.90
37844;DHT22;63793;57.632;18.292;2023-07-13T10:43:57;20.30;99.90
37844;DHT22;63793;57.632;18.292;2023-07-13T10:46:26;20.40;99.90
37844;DHT22;63793;57.632;18.292;2023-07-13T10:49:01;20.50;99.90
37844;DHT22;63793;57.632;18.292;2023-07-13T10:51:30;20.60;99.90
37844;DHT22;63793;57.632;18.292;2023-07-13T10:54:20;20.70;99.90
37844;DHT22;63793;57.632;18.292;2023-07-13T10:57:07;20.70;99.90
37844;DHT22;63793;57.632;18.292;2023-07-13T10:59:35;20.50;99.90
37844;DHT22;63793;57.632;18.292;2023-07-13T11:04:39;20.50;99.90
37844;DHT22;63793;57.632;18.292;2023-07-13T11:07:18;20.50;99.90
37844;DHT22;63793;57.632;18.292;2023-07-13T11:09:50;20.60;99.90
37844;DHT22;63793;57.632;18.292;2023-07-13T11:19:52;20.80;99.90
37844;DHT22;63793;57.632;18.292;2023-07-13T11:22:48;21.00;99.90
37844;DHT22;63793;57.632;18.292;2023-07-13T11:25:33;21.20;99.90
37844;DHT22;63793;57.632;18.292;2023-07-13T11:35:40;21.50;99.90
37844;DHT22;63793;57.632;18.292;2023-07-13T11:38:21;21.60;99.90
37844;DHT22;63793;57.632;18.292;2023-07-13T11:40:52;21.70;99.90
37844;DHT22;63793;57.632;18.292;2023-07-13T11:43:22;21.80;99.90
37844;DHT22;63793;57.632;18.292;2023-07-13T11:45:52;21.80;99.90
37844;DHT22;63793;57.632;18.292;2023-07-13T11:48:20;21.50;99.90
37844;DHT22;63793;57.632;18.292;2023-07-13T11:50:57;21.60;99.90
37844;DHT22;63793;57.632;18.292;2023-07-13T11:53:27;21.90;99.90
37844;DHT22;63793;57.632;18.292;2023-07-13T11:55:55;22.00;99.90
37844;DHT22;63793;57.632;18.292;2023-07-13T11:58:24;22.20;99.90
37844;DHT22;63793;57.632;18.292;2023-07-13T12:00:52;22.20;99.90
37844;DHT22;63793;57.632;18.292;2023-07-13T12:03:22;22.30;99.90
37844;DHT22;63793;57.632;18.292;2023-07-13T12:08:28;22.10;99.90
37844;DHT22;63793;57.632;18.292;2023-07-13T12:11:01;22.10;99.90
37844;DHT22;63793;57.632;18.292;2023-07-13T12:13:37;22.00;99.90
37844;DHT22;63793;57.632;18.292;2023-07-13T12:16:27;21.70;99.90
37844;DHT22;63793;57.632;18.292;2023-07-13T12:18:55;21.60;99.90
37844;DHT22;63793;57.632;18.292;2023-07-13T12:21:37;21.60;99.90
37844;DHT22;63793;57.632;18.292;2023-07-13T12:24:14;21.50;99.90
37844;DHT22;63793;57.632;18.292;2023-07-13T12:26:41;21.60;99.90
37844;DHT22;63793;57.632;18.292;2023-07-13T12:29:11;21.70;99.90
37844;DHT22;63793;57.632;18.292;2023-07-13T12:31:44;21.80;99.90
37844;DHT22;63793;57.632;18.292;2023-07-13T12:34:13;21.90;99.90
37844;DHT22;63793;57.632;18.292;2023-07-13T12:41:52;21.50;99.90
37844;DHT22;63793;57.632;18.292;2023-07-13T12:44:29;21.80;99.90
37844;DHT22;63793;57.632;18.292;2023-07-13T12:47:02;22.20;99.90
37844;DHT22;63793;57.632;18.292;2023-07-13T12:49:32;22.30;99.90
37844;DHT22;63793;57.632;18.292;2023-07-13T12:52:03;22.50;99.90
37844;DHT22;63793;57.632;18.292;2023-07-13T12:54:31;22.50;99.90
37844;DHT22;63793;57.632;18.292;2023-07-13T12:56:59;22.70;99.90
37844;DHT22;63793;57.632;18.292;2023-07-13T12:59:30;22.90;99.90
37844;DHT22;63793;57.632;18.292;2023-07-13T13:01:59;23.10;99.90
37844;DHT22;63793;57.632;18.292;2023-07-13T13:04:27;23.10;99.90
37844;DHT22;63793;57.632;18.292;2023-07-13T13:07:02;23.10;99.90
37844;DHT22;63793;57.632;18.292;2023-07-13T13:09:30;23.00;99.90
37844;DHT22;63793;57.632;18.292;2023-07-13T13:11:58;22.90;99.90
37844;DHT22;63793;57.632;18.292;2023-07-13T13:14:25;23.10;99.90
37844;DHT22;63793;57.632;18.292;2023-07-13T13:16:52;23.20;99.60
37844;DHT22;63793;57.632;18.292;2023-07-13T13:19:22;23.40;99.90
37844;DHT22;63793;57.632;18.292;2023-07-13T13:21:50;23.50;99.80
37844;DHT22;63793;57.632;18.292;2023-07-13T13:24:22;23.70;99.80
37844;DHT22;63793;57.632;18.292;2023-07-13T13:26:51;23.80;99.80
37844;DHT22;63793;57.632;18.292;2023-07-13T13:29:21;23.60;98.20
37844;DHT22;63793;57.632;18.292;2023-07-13T13:31:51;23.60;99.50
37844;DHT22;63793;57.632;18.292;2023-07-13T13:34:20;23.80;99.90
37844;DHT22;63793;57.632;18.292;2023-07-13T13:36:50;23.80;99.00
37844;DHT22;63793;57.632;18.292;2023-07-13T13:39:23;23.80;99.00
37844;DHT22;63793;57.632;18.292;2023-07-13T13:41:52;23.70;99.70
37844;DHT22;63793;57.632;18.292;2023-07-13T13:44:21;23.80;99.70
37844;DHT22;63793;57.632;18.292;2023-07-13T13:46:51;23.80;98.60
37844;DHT22;63793;57.632;18.292;2023-07-13T13:49:26;24.00;98.90
37844;DHT22;63793;57.632;18.292;2023-07-13T13:51:54;24.20;98.70
37844;DHT22;63793;57.632;18.292;2023-07-13T13:54:22;24.10;97.90
37844;DHT22;63793;57.632;18.292;2023-07-13T13:56:51;24.10;97.70
37844;DHT22;63793;57.632;18.292;2023-07-13T13:59:18;24.00;98.50
37844;DHT22;63793;57.632;18.292;2023-07-13T14:01:47;24.10;98.40
37844;DHT22;63793;57.632;18.292;2023-07-13T14:04:19;24.00;98.40
37844;DHT22;63793;57.632;18.292;2023-07-13T14:06:47;23.90;97.70
37844;DHT22;63793;57.632;18.292;2023-07-13T14:09:16;24.20;98.40
37844;DHT22;63793;57.632;18.292;2023-07-13T14:11:46;24.10;97.90
37844;DHT22;63793;57.632;18.292;2023-07-13T14:14:24;24.10;97.70
37844;DHT22;63793;57.632;18.292;2023-07-13T14:16:54;24.10;97.70
37844;DHT22;63793;57.632;18.292;2023-07-13T14:19:23;24.30;98.10
37844;DHT22;63793;57.632;18.292;2023-07-13T14:21:50;24.40;98.00
37844;DHT22;63793;57.632;18.292;2023-07-13T14:24:21;24.70;97.80
37844;DHT22;63793;57.632;18.292;2023-07-13T14:26:48;24.80;97.40
37844;DHT22;63793;57.632;18.292;2023-07-13T14:29:17;24.70;97.80
37844;DHT22;63793;57.632;18.292;2023-07-13T14:31:48;24.70;98.20
37844;DHT22;63793;57.632;18.292;2023-07-13T14:34:15;24.70;98.50
37844;DHT22;63793;57.632;18.292;2023-07-13T14:36:47;24.60;98.30
37844;DHT22;63793;57.632;18.292;2023-07-13T14:39:18;24.70;98.80
37844;DHT22;63793;57.632;18.292;2023-07-13T14:41:49;24.60;99.10
37844;DHT22;63793;57.632;18.292;2023-07-13T14:44:20;24.70;98.90
37844;DHT22;63793;57.632;18.292;2023-07-13T14:46:48;24.50;99.30
37844;DHT22;63793;57.632;18.292;2023-07-13T14:51:58;24.60;98.70
37844;DHT22;63793;57.632;18.292;2023-07-13T14:54:25;24.80;99.00
37844;DHT22;63793;57.632;18.292;2023-07-13T14:56:53;24.60;99.10
37844;DHT22;63793;57.632;18.292;2023-07-13T14:59:20;24.80;99.30
37844;DHT22;63793;57.632;18.292;2023-07-13T15:01:48;24.80;99.10
37844;DHT22;63793;57.632;18.292;2023-07-13T15:04:16;24.90;99.20
37844;DHT22;63793;57.632;18.292;2023-07-13T15:07:02;24.70;99.00
37844;DHT22;63793;57.632;18.292;2023-07-13T15:09:31;24.50;98.80
37844;DHT22;63793;57.632;18.292;2023-07-13T15:11:58;24.50;98.60
37844;DHT22;63793;57.632;18.292;2023-07-13T15:14:26;24.70;99.00
37844;DHT22;63793;57.632;18.292;2023-07-13T15:16:55;24.70;99.40
37844;DHT22;63793;57.632;18.292;2023-07-13T15:19:23;24.70;99.70
37844;DHT22;63793;57.632;18.292;2023-07-13T15:21:50;24.80;99.90
37844;DHT22;63793;57.632;18.292;2023-07-13T15:24:19;25.10;99.40
37844;DHT22;63793;57.632;18.292;2023-07-13T15:26:47;25.00;99.80
37844;DHT22;63793;57.632;18.292;2023-07-13T15:29:16;25.10;99.60
37844;DHT22;63793;57.632;18.292;2023-07-13T15:31:44;25.30;99.80
37844;DHT22;63793;57.632;18.292;2023-07-13T15:34:15;25.20;99.30
37844;DHT22;63793;57.632;18.292;2023-07-13T15:36:43;25.20;99.60
37844;DHT22;63793;57.632;18.292;2023-07-13T15:39:16;25.40;99.90
37844;DHT22;63793;57.632;18.292;2023-07-13T15:41:45;25.30;99.90
37844;DHT22;63793;57.632;18.292;2023-07-13T15:44:29;25.30;99.90
37844;DHT22;63793;57.632;18.292;2023-07-13T15:46:57;25.10;99.90
37844;DHT22;63793;57.632;18.292;2023-07-13T15:49:27;25.10;99.90
37844;DHT22;63793;57.632;18.292;2023-07-13T15:51:54;25.00;99.90
37844;DHT22;63793;57.632;18.292;2023-07-13T15:54:22;24.70;99.90
37844;DHT22;63793;57.632;18.292;2023-07-13T15:56:55;24.50;99.90
37844;DHT22;63793;57.632;18.292;2023-07-13T15:59:22;24.50;99.90
37844;DHT22;63793;57.632;18.292;2023-07-13T16:01:50;24.80;99.90
37844;DHT22;63793;57.632;18.292;2023-07-13T16:04:17;24.80;99.90
37844;DHT22;63793;57.632;18.292;2023-07-13T16:06:46;24.90;99.70
37844;DHT22;63793;57.632;18.292;2023-07-13T16:09:22;24.90;99.60
37844;DHT22;63793;57.632;18.292;2023-07-13T16:11:50;25.10;99.60
37844;DHT22;63793;57.632;18.292;2023-07-13T16:14:18;25.30;99.30
37844;DHT22;63793;57.632;18.292;2023-07-13T16:16:47;25.30;99.00
37844;DHT22;63793;57.632;18.292;2023-07-13T16:19:15;25.10;98.90
37844;DHT22;63793;57.632;18.292;2023-07-13T16:21:46;24.80;98.50
37844;DHT22;63793;57.632;18.292;2023-07-13T16:24:17;24.90;98.70
37844;DHT22;63793;57.632;18.292;2023-07-13T16:26:47;25.30;98.70
37844;DHT22;63793;57.632;18.292;2023-07-13T16:29:26;25.50;98.50
37844;DHT22;63793;57.632;18.292;2023-07-13T16:32:01;25.40;98.50